Austin Golding — WDC8113 — position and weather

sailwx.info

Track history (hours):
 
Tides and Currents Weather Stations Pressure Air Temp Water Temp Dewpoint Dewpoint Depression Visibility Wind Speed Wind Dir Waves Ship Positions

Austin Golding

Owner: Golding Barge Line, Inc., Vicksburg, MS. More information available from US FCC via Universal Licensing System and Coast Guard Vessel Documentation Center.

Last reported at 2018-Jan-08 07:49 UTC. Time now 2018-Jan-19 05:48 UTC.
Position N 30°26' W 086°17'.
Warning: this ship's position is 10 days out of date.

Length 211 m; draft 2.9 m.

Type: . MMSI: 367081860.

Date/timePositionNaut miles runAvg speedWind from/ knotsBaromVisibWave heightAir tempDewpointWater temp
2018-Jan-08 07:49N 30°26' W 086°17'2 5.9
2018-Jan-08 07:30N 30°26' W 086°19'3 6.0
2018-Jan-08 07:00N 30°26' W 086°23'3 6.2
2018-Jan-08 06:30N 30°26' W 086°26'3 5.9
2018-Jan-08 06:00N 30°26' W 086°30'3 6.1
2018-Jan-08 05:29N 30°24' W 086°33'10 2.7
2018-Jan-08 01:46N 30°24' W 086°44'1 5.0
2018-Jan-08 01:30N 30°24' W 086°46'3 5.5
2018-Jan-08 01:01N 30°24' W 086°49'3 5.5
2018-Jan-08 00:31N 30°24' W 086°52'  
2018-Jan-05 10:29N 30°24' W 086°53'3 6.4
2018-Jan-05 10:00N 30°24' W 086°50'3 6.3
2018-Jan-05 09:30N 30°24' W 086°46'12 5.5
2018-Jan-05 07:25N 30°25' W 086°33'3 6.9
2018-Jan-05 07:00N 30°26' W 086°30'3 6.7
2018-Jan-05 06:30N 30°26' W 086°26'3 6.9
2018-Jan-05 06:00N 30°26' W 086°22'4 6.7
2018-Jan-05 05:28N 30°26' W 086°18'  
2017-Dec-31 11:07N 30°26' W 086°18'1 6.0
2017-Dec-31 11:00N 30°26' W 086°19'3 6.2
2017-Dec-31 10:30N 30°26' W 086°22'3 6.8
2017-Dec-31 10:00N 30°26' W 086°26'3 6.6
2017-Dec-31 09:30N 30°26' W 086°30'12 5.5
2017-Dec-31 07:16N 30°24' W 086°44'1 5.5
2017-Dec-31 07:00N 30°24' W 086°46'3 5.7
2017-Dec-31 06:30N 30°24' W 086°49'3 5.7
2017-Dec-31 06:00N 30°24' W 086°53'  
Track history (hours):
 
Tides and Currents Weather Stations Pressure Air Temp Water Temp Dewpoint Dewpoint Depression Visibility Wind Speed Wind Dir Waves Ship Positions

Austin Golding

Owner: Golding Barge Line, Inc., Vicksburg, MS. More information available from US FCC via Universal Licensing System and Coast Guard Vessel Documentation Center.

Last reported at 2018-Jan-08 07:49 UTC. Time now 2018-Jan-19 05:48 UTC.
Position N 30°26' W 086°17'.
Warning: this ship's position is 10 days out of date.

Length 211 m; draft 2.9 m.

Type: . MMSI: 367081860.

Date/timePositionNaut miles runAvg speedWind from/ knotsBaromVisibWave heightAir tempDewpointWater temp
2018-Jan-08 07:49N 30°26' W 086°17'2 5.9
2018-Jan-08 07:30N 30°26' W 086°19'3 6.0
2018-Jan-08 07:00N 30°26' W 086°23'3 6.2
2018-Jan-08 06:30N 30°26' W 086°26'3 5.9
2018-Jan-08 06:00N 30°26' W 086°30'3 6.1
2018-Jan-08 05:29N 30°24' W 086°33'10 2.7
2018-Jan-08 01:46N 30°24' W 086°44'1 5.0
2018-Jan-08 01:30N 30°24' W 086°46'3 5.5
2018-Jan-08 01:01N 30°24' W 086°49'3 5.5
2018-Jan-08 00:31N 30°24' W 086°52'  
2018-Jan-05 10:29N 30°24' W 086°53'3 6.4
2018-Jan-05 10:00N 30°24' W 086°50'3 6.3
2018-Jan-05 09:30N 30°24' W 086°46'12 5.5
2018-Jan-05 07:25N 30°25' W 086°33'3 6.9
2018-Jan-05 07:00N 30°26' W 086°30'3 6.7
2018-Jan-05 06:30N 30°26' W 086°26'3 6.9
2018-Jan-05 06:00N 30°26' W 086°22'4 6.7
2018-Jan-05 05:28N 30°26' W 086°18'  
2017-Dec-31 11:07N 30°26' W 086°18'1 6.0
2017-Dec-31 11:00N 30°26' W 086°19'3 6.2
2017-Dec-31 10:30N 30°26' W 086°22'3 6.8
2017-Dec-31 10:00N 30°26' W 086°26'3 6.6
2017-Dec-31 09:30N 30°26' W 086°30'12 5.5
2017-Dec-31 07:16N 30°24' W 086°44'1 5.5
2017-Dec-31 07:00N 30°24' W 086°46'3 5.7
2017-Dec-31 06:30N 30°24' W 086°49'3 5.7
2017-Dec-31 06:00N 30°24' W 086°53'  

Dump ship's entire track history